Time;durP1;ratioP1;P1;durP2;ratioP2;P2;SDS_P1;SDS_P2;PMS_P1;PMS_P2;Temp;Humidity;BMP_temperature;BMP_pressure;BME280_temperature;BME280_humidity;BME280_pressure;Samples;Min_cycle;Max_cycle;Signal;HPM_P1;HPM_P2
2022/04/29 00:01:28;;;;;;;14.30;2.90;;;5.30;99.90;;;;;;5047037;28;20075;-65
2022/04/29 00:03:54;;;;;;;6.80;2.80;;;5.30;99.90;;;;;;5051921;28;20537;-65
2022/04/29 00:06:20;;;;;;;11.55;3.63;;;5.20;99.90;;;;;;5050193;28;20049;-65
2022/04/29 00:08:46;;;;;;;14.27;3.22;;;5.20;99.90;;;;;;5042634;28;20134;-65
2022/04/29 00:11:12;;;;;;;9.90;2.80;;;5.20;99.90;;;;;;5047709;28;20493;-65
2022/04/29 00:13:37;;;;;;;11.20;3.13;;;5.20;99.90;;;;;;5047449;28;20578;-65
2022/04/29 00:16:05;;;;;;;10.90;3.00;;;5.20;99.90;;;;;;5042552;28;20436;-65
2022/04/29 00:18:31;;;;;;;10.13;3.88;;;5.20;99.90;;;;;;5044563;28;20052;-65
2022/04/29 00:20:57;;;;;;;9.85;3.38;;;5.10;99.90;;;;;;5040711;28;20045;-65
2022/04/29 00:23:23;;;;;;;9.75;3.25;;;5.10;99.90;;;;;;5043338;28;20041;-65
2022/04/29 00:25:48;;;;;;;11.32;3.78;;;5.10;99.90;;;;;;5039404;28;20041;-65
2022/04/29 00:28:14;;;;;;;13.40;3.88;;;5.10;99.90;;;;;;5042431;28;20048;-65
2022/04/29 00:30:40;;;;;;;8.23;3.20;;;5.00;99.90;;;;;;5043287;28;20079;-65
2022/04/29 00:33:05;;;;;;;9.07;3.42;;;5.00;99.90;;;;;;5039829;28;20491;-65
2022/04/29 00:35:31;;;;;;;11.38;3.47;;;5.00;99.90;;;;;;5043505;28;20037;-65
2022/04/29 00:37:58;;;;;;;11.32;3.45;;;5.00;99.90;;;;;;5045807;28;20403;-65
2022/04/29 00:40:27;;;;;;;14.00;3.45;;;5.00;99.90;;;;;;5041550;28;20045;-65
2022/04/29 00:42:52;;;;;;;15.27;4.18;;;5.00;99.90;;;;;;5044900;28;20048;-65
2022/04/29 00:45:20;;;;;;;9.00;3.13;;;5.00;99.90;;;;;;5040508;28;20044;-65
2022/04/29 00:47:47;;;;;;;10.05;3.45;;;4.90;99.90;;;;;;5044031;28;20049;-65
2022/04/29 00:50:16;;;;;;;11.52;3.45;;;4.90;99.90;;;;;;5045844;28;20048;-64
2022/04/29 00:52:45;;;;;;;10.15;3.72;;;4.90;99.90;;;;;;5048883;28;20045;-65
2022/04/29 00:55:13;;;;;;;10.10;3.97;;;4.90;99.90;;;;;;5050007;28;20048;-66
2022/04/29 00:57:50;;;;;;;9.15;3.70;;;4.80;99.90;;;;;;5049760;28;20036;-65
2022/04/29 01:00:16;;;;;;;10.38;3.70;;;4.80;99.90;;;;;;5050182;28;20037;-65
2022/04/29 01:02:45;;;;;;;9.68;3.35;;;4.70;99.90;;;;;;5048018;28;20110;-65
2022/04/29 01:05:14;;;;;;;12.18;4.32;;;4.70;99.90;;;;;;5050109;28;20056;-65
2022/04/29 01:07:41;;;;;;;13.15;3.92;;;4.70;99.90;;;;;;5049622;28;20056;-65
2022/04/29 01:10:08;;;;;;;16.33;3.70;;;4.70;99.90;;;;;;5050192;28;20060;-65
2022/04/29 01:12:35;;;;;;;12.88;4.13;;;4.70;99.90;;;;;;5048582;28;20052;-65
2022/04/29 01:15:06;;;;;;;7.10;3.45;;;4.60;99.90;;;;;;5047898;28;20037;-65
2022/04/29 01:17:37;;;;;;;8.75;3.45;;;4.60;99.90;;;;;;5048652;28;20036;-65
2022/04/29 01:20:06;;;;;;;8.13;3.78;;;4.60;99.90;;;;;;5042080;28;20129;-65
2022/04/29 01:22:32;;;;;;;12.30;4.22;;;4.60;99.90;;;;;;5046208;28;20045;-65
2022/04/29 01:24:58;;;;;;;12.05;3.90;;;4.60;99.90;;;;;;5049316;28;20052;-65
2022/04/29 01:27:24;;;;;;;9.80;3.83;;;4.50;99.90;;;;;;5048544;28;20045;-65
2022/04/29 01:30:11;;;;;;;10.95;3.63;;;4.60;99.90;;;;;;5049386;28;20041;-65
2022/04/29 01:32:39;;;;;;;12.45;4.40;;;4.60;99.90;;;;;;5048061;28;20048;-65
2022/04/29 01:35:06;;;;;;;10.63;3.88;;;4.50;99.90;;;;;;5048759;28;20041;-65
2022/04/29 01:37:33;;;;;;;12.18;4.30;;;4.60;99.90;;;;;;5049652;28;20517;-65
2022/04/29 01:39:59;;;;;;;9.90;4.10;;;4.50;99.90;;;;;;5048180;28;20049;-65
2022/04/29 01:42:28;;;;;;;12.63;3.88;;;4.60;99.90;;;;;;5048590;28;20052;-65
2022/04/29 01:44:54;;;;;;;13.13;4.28;;;4.50;99.90;;;;;;5050854;28;20052;-65
2022/04/29 01:47:20;;;;;;;10.13;4.38;;;4.60;99.90;;;;;;5048652;28;20102;-65
2022/04/29 01:49:46;;;;;;;9.80;4.80;;;4.60;99.90;;;;;;5044583;28;20044;-65
2022/04/29 01:52:11;;;;;;;15.02;4.43;;;4.50;99.90;;;;;;5046774;28;20049;-65
2022/04/29 01:54:37;;;;;;;10.25;4.47;;;4.50;99.90;;;;;;5050522;28;20041;-65
2022/04/29 01:57:07;;;;;;;9.90;4.15;;;4.50;99.90;;;;;;5049489;28;20377;-65
2022/04/29 01:59:35;;;;;;;10.65;4.72;;;4.50;99.90;;;;;;5049948;28;20441;-65
2022/04/29 02:02:02;;;;;;;10.00;4.25;;;4.50;99.90;;;;;;5047037;28;20056;-65
2022/04/29 02:04:29;;;;;;;12.35;5.55;;;4.50;99.90;;;;;;5048077;28;20057;-65
2022/04/29 02:06:55;;;;;;;9.63;4.57;;;4.40;99.90;;;;;;5048849;28;20040;-65
2022/04/29 02:09:21;;;;;;;13.20;4.38;;;3.80;99.90;;;;;;5031369;28;20045;-65
2022/04/29 02:12:06;;;;;;;11.68;4.57;;;4.40;99.90;;;;;;5047055;28;20118;-67
2022/04/29 02:14:37;;;;;;;10.35;4.75;;;4.90;99.90;;;;;;5049582;28;20091;-65
2022/04/29 02:17:07;;;;;;;11.57;5.05;;;4.40;99.90;;;;;;5047050;28;20115;-66
2022/04/29 02:19:34;;;;;;;9.82;4.45;;;4.60;99.90;;;;;;5047006;28;20084;-65
2022/04/29 02:22:01;;;;;;;9.93;5.00;;;4.40;99.90;;;;;;5048733;28;20627;-65
2022/04/29 02:24:27;;;;;;;10.82;4.93;;;4.40;99.90;;;;;;5040273;28;20159;-65
2022/04/29 02:26:54;;;;;;;10.85;4.97;;;4.40;99.90;;;;;;5037609;28;20120;-65
2022/04/29 02:29:20;;;;;;;11.60;5.30;;;4.40;99.90;;;;;;5047770;28;20045;-65
2022/04/29 02:31:46;;;;;;;12.80;5.38;;;4.40;99.90;;;;;;5048514;28;20532;-65
2022/04/29 02:34:12;;;;;;;14.52;5.78;;;4.40;99.90;;;;;;5047691;28;20549;-65
2022/04/29 02:36:40;;;;;;;11.43;5.40;;;4.40;99.90;;;;;;5046752;28;20079;-65
2022/04/29 02:39:06;;;;;;;12.68;5.65;;;4.40;99.90;;;;;;5036765;28;20406;-65
2022/04/29 02:41:31;;;;;;;9.85;5.22;;;4.30;99.90;;;;;;5047167;28;20056;-64
2022/04/29 02:43:57;;;;;;;11.90;5.80;;;4.40;99.90;;;;;;5047844;28;20123;-64
2022/04/29 02:46:23;;;;;;;10.40;5.53;;;4.30;99.90;;;;;;5047887;28;20537;-64
2022/04/29 02:48:48;;;;;;;10.27;5.68;;;4.30;99.90;;;;;;5046915;28;20147;-64
2022/04/29 02:51:15;;;;;;;20.65;7.40;;;4.30;99.90;;;;;;5047763;28;20057;-64
2022/04/29 02:53:42;;;;;;;12.80;5.65;;;4.30;99.90;;;;;;5048347;28;20040;-64
2022/04/29 02:56:08;;;;;;;11.93;5.57;;;4.20;99.90;;;;;;5047539;28;20116;-65
2022/04/29 02:58:34;;;;;;;12.32;6.18;;;4.20;99.90;;;;;;5046090;28;20510;-64
2022/04/29 03:00:59;;;;;;;15.15;5.82;;;4.20;99.90;;;;;;5049228;28;20044;-64
2022/04/29 03:03:25;;;;;;;10.27;5.68;;;4.20;99.90;;;;;;5046643;28;20041;-64
2022/04/29 03:05:50;;;;;;;13.30;5.97;;;4.10;99.90;;;;;;5048511;28;20094;-64
2022/04/29 03:08:16;;;;;;;8.88;5.53;;;4.10;99.90;;;;;;5042624;28;20053;-64
2022/04/29 03:10:42;;;;;;;9.90;5.75;;;4.10;99.90;;;;;;5048433;28;20102;-64
2022/04/29 03:13:07;;;;;;;12.00;5.95;;;4.10;99.90;;;;;;5046266;28;20045;-64
2022/04/29 03:15:34;;;;;;;11.43;6.35;;;4.10;99.90;;;;;;5046070;28;20103;-64
2022/04/29 03:18:18;;;;;;;12.05;5.90;;;4.10;99.90;;;;;;5045493;28;20033;-64
2022/04/29 03:20:45;;;;;;;11.73;5.25;;;4.10;99.90;;;;;;5042080;28;20045;-65
2022/04/29 03:23:12;;;;;;;11.35;5.78;;;4.10;99.90;;;;;;5047502;28;20045;-64
2022/04/29 03:25:38;;;;;;;10.02;5.50;;;4.10;99.90;;;;;;5045726;28;20041;-64
2022/04/29 03:28:06;;;;;;;11.25;5.80;;;4.10;99.90;;;;;;5046588;28;20041;-66
2022/04/29 03:30:32;;;;;;;13.75;6.25;;;4.10;99.90;;;;;;5048184;28;20051;-65
2022/04/29 03:33:00;;;;;;;16.25;7.20;;;4.20;99.90;;;;;;5047308;28;20393;-64
2022/04/29 03:35:26;;;;;;;14.30;6.00;;;4.20;99.90;;;;;;5047614;28;20041;-65
2022/04/29 03:37:53;;;;;;;13.57;6.28;;;4.20;99.90;;;;;;5047046;28;20111;-65
2022/04/29 03:40:22;;;;;;;12.00;5.93;;;4.20;99.90;;;;;;5048218;28;20056;-65
2022/04/29 03:42:56;;;;;;;12.27;6.15;;;4.20;99.90;;;;;;5028380;28;20069;-65
2022/04/29 03:45:24;;;;;;;16.42;6.38;;;4.20;99.90;;;;;;5039429;28;20441;-65
2022/04/29 03:47:50;;;;;;;12.18;5.75;;;4.30;99.90;;;;;;5045328;28;20514;-65
2022/04/29 03:50:16;;;;;;;16.23;6.18;;;4.30;99.90;;;;;;5046568;28;20045;-65
2022/04/29 03:52:49;;;;;;;10.75;5.90;;;4.30;99.90;;;;;;5047426;28;20690;-65
2022/04/29 03:55:17;;;;;;;18.73;6.38;;;4.40;99.90;;;;;;5047245;28;20048;-65
2022/04/29 03:57:43;;;;;;;12.35;5.32;;;4.40;99.90;;;;;;5048251;28;20440;-65
2022/04/29 04:00:09;;;;;;;11.35;6.00;;;4.40;99.90;;;;;;5048340;28;20048;-65
2022/04/29 04:02:35;;;;;;;15.10;6.25;;;4.40;99.90;;;;;;5036765;28;20041;-65
2022/04/29 04:05:01;;;;;;;10.55;6.28;;;4.50;99.90;;;;;;5044413;28;20080;-64
2022/04/29 04:07:26;;;;;;;9.57;5.78;;;4.50;99.90;;;;;;5042196;28;20052;-65
2022/04/29 04:09:52;;;;;;;12.02;6.13;;;4.50;99.90;;;;;;5032503;28;20041;-65
2022/04/29 04:12:18;;;;;;;13.40;6.97;;;4.50;99.90;;;;;;5039253;28;20489;-65
2022/04/29 04:14:43;;;;;;;15.10;7.00;;;4.60;99.90;;;;;;5018789;28;20037;-65
2022/04/29 04:17:09;;;;;;;12.43;6.80;;;4.60;99.90;;;;;;5043176;28;20076;-64
2022/04/29 04:19:35;;;;;;;16.40;6.25;;;4.60;99.90;;;;;;5043999;28;20494;-64
2022/04/29 04:22:01;;;;;;;10.10;5.88;;;4.60;99.90;;;;;;5041929;28;20044;-64
2022/04/29 04:24:27;;;;;;;10.65;6.05;;;4.60;99.90;;;;;;5049209;28;20464;-64
2022/04/29 04:26:53;;;;;;;11.68;6.30;;;4.70;99.90;;;;;;5044446;28;20229;-65
2022/04/29 04:29:19;;;;;;;13.48;6.70;;;4.70;99.90;;;;;;5036414;28;20110;-65
2022/04/29 04:31:45;;;;;;;11.05;5.90;;;4.70;99.90;;;;;;5043046;28;20104;-65
2022/04/29 04:36:54;;;;;;;22.92;8.07;;;4.80;99.90;;;;;;5042534;28;20136;-65
2022/04/29 04:39:22;;;;;;;14.68;7.30;;;4.90;99.90;;;;;;5043543;28;20119;-64
2022/04/29 04:41:48;;;;;;;13.45;7.07;;;5.00;99.90;;;;;;5030215;28;20452;-64
2022/04/29 04:44:14;;;;;;;14.05;7.45;;;5.00;99.90;;;;;;5041885;28;20438;-65
2022/04/29 04:46:40;;;;;;;14.27;6.75;;;5.00;99.90;;;;;;5034368;28;20553;-64
2022/04/29 04:49:06;;;;;;;15.32;7.20;;;5.10;99.90;;;;;;5044150;28;20120;-65
2022/04/29 04:51:31;;;;;;;13.75;7.38;;;5.30;99.90;;;;;;5042862;28;20121;-65
2022/04/29 04:53:57;;;;;;;13.18;7.18;;;5.40;99.90;;;;;;5046506;28;20047;-65
2022/04/29 04:56:23;;;;;;;19.83;8.00;;;5.50;99.90;;;;;;5051478;28;20036;-65
2022/04/29 04:58:48;;;;;;;11.93;7.45;;;5.60;99.90;;;;;;5049325;28;20146;-65
2022/04/29 05:01:14;;;;;;;14.18;7.43;;;5.70;99.90;;;;;;5044273;28;20049;-65
2022/04/29 05:03:40;;;;;;;13.43;7.85;;;5.80;99.90;;;;;;5048216;28;20071;-64
2022/04/29 05:06:05;;;;;;;13.65;7.60;;;5.90;99.90;;;;;;5045267;28;20041;-64
2022/04/29 05:08:31;;;;;;;16.63;7.30;;;6.00;99.90;;;;;;5040033;28;20050;-65
2022/04/29 05:10:57;;;;;;;15.32;7.03;;;6.10;99.90;;;;;;5038977;28;20056;-65
2022/04/29 05:13:22;;;;;;;14.82;7.05;;;6.20;99.90;;;;;;5047687;28;20640;-65
2022/04/29 05:15:48;;;;;;;14.95;7.07;;;6.40;99.90;;;;;;5045968;28;20068;-65
2022/04/29 05:18:15;;;;;;;13.20;6.60;;;6.60;99.90;;;;;;5044371;28;20052;-66
2022/04/29 05:20:40;;;;;;;10.90;7.05;;;6.70;99.90;;;;;;5047011;28;20033;-65
2022/04/29 05:23:06;;;;;;;9.75;6.35;;;6.80;99.90;;;;;;5043469;28;20051;-65
2022/04/29 05:25:34;;;;;;;13.60;7.35;;;6.80;99.90;;;;;;5044101;28;20044;-65
2022/04/29 05:27:59;;;;;;;20.25;7.80;;;6.90;99.90;;;;;;5042268;28;20132;-64
2022/04/29 05:30:27;;;;;;;13.23;6.60;;;7.00;99.90;;;;;;5044486;28;20532;-65
2022/04/29 05:32:53;;;;;;;11.25;6.90;;;7.00;99.90;;;;;;5044999;28;20064;-65
2022/04/29 05:35:19;;;;;;;12.60;6.60;;;7.00;99.90;;;;;;5045456;28;20037;-65
2022/04/29 05:37:45;;;;;;;14.10;6.55;;;7.00;99.90;;;;;;5044646;28;20136;-65
2022/04/29 05:42:56;;;;;;;9.02;5.68;;;7.10;99.90;;;;;;5041111;28;20049;-65
2022/04/29 05:45:21;;;;;;;13.32;5.72;;;7.10;99.90;;;;;;5044508;28;20056;-65
2022/04/29 05:47:47;;;;;;;11.45;5.57;;;7.10;99.90;;;;;;5043964;28;20044;-65
2022/04/29 05:50:13;;;;;;;12.93;5.85;;;7.10;99.90;;;;;;5042568;28;20037;-65
2022/04/29 05:52:39;;;;;;;8.80;5.30;;;7.30;99.90;;;;;;5041556;28;20445;-65
2022/04/29 05:55:05;;;;;;;14.77;6.13;;;7.40;99.90;;;;;;5041826;28;20041;-65
2022/04/29 05:57:31;;;;;;;15.77;5.95;;;7.20;99.90;;;;;;5043138;28;20425;-65
2022/04/29 05:59:58;;;;;;;11.52;5.85;;;7.30;99.90;;;;;;5027032;28;20045;-65
2022/04/29 06:02:28;;;;;;;11.25;5.10;;;7.40;99.90;;;;;;5043597;28;20131;-65
2022/04/29 06:04:54;;;;;;;10.25;5.10;;;7.40;99.90;;;;;;5042992;28;20057;-65
2022/04/29 06:07:19;;;;;;;12.07;4.90;;;7.50;99.90;;;;;;5045712;28;20127;-65
2022/04/29 06:09:45;;;;;;;12.77;4.55;;;7.60;99.90;;;;;;5044507;28;20049;-65
2022/04/29 06:12:11;;;;;;;8.80;4.57;;;7.70;99.90;;;;;;5042104;28;20577;-65
2022/04/29 06:14:37;;;;;;;11.55;4.70;;;7.80;99.90;;;;;;5044040;28;20041;-65
2022/04/29 06:17:03;;;;;;;8.93;4.20;;;7.90;99.90;;;;;;5042116;28;20441;-65
2022/04/29 06:19:28;;;;;;;11.80;3.88;;;7.90;99.90;;;;;;5043777;28;20072;-65
2022/04/29 06:21:54;;;;;;;8.85;4.07;;;8.00;99.90;;;;;;5039427;28;20052;-65
2022/04/29 06:24:20;;;;;;;13.48;4.60;;;8.00;99.90;;;;;;5043304;28;20033;-64
2022/04/29 06:26:46;;;;;;;13.07;3.80;;;8.00;99.90;;;;;;5042471;28;20048;-65
2022/04/29 06:29:12;;;;;;;8.93;4.15;;;8.10;99.90;;;;;;5041602;28;20052;-65
2022/04/29 06:31:38;;;;;;;11.23;3.72;;;8.30;99.90;;;;;;5044266;28;20042;-65
2022/04/29 06:34:04;;;;;;;9.60;3.92;;;8.40;99.90;;;;;;5024261;28;20052;-65
2022/04/29 06:36:30;;;;;;;13.15;4.25;;;8.40;99.90;;;;;;5045054;28;20485;-65
2022/04/29 06:38:56;;;;;;;9.43;3.60;;;8.40;99.90;;;;;;5043051;28;20106;-65
2022/04/29 06:41:21;;;;;;;10.55;3.75;;;8.50;99.90;;;;;;5041036;28;20076;-65
2022/04/29 06:43:48;;;;;;;15.55;4.43;;;8.60;99.90;;;;;;5042226;28;20098;-65
2022/04/29 06:46:15;;;;;;;10.55;4.25;;;8.70;99.90;;;;;;5036772;28;20050;-65
2022/04/29 06:48:41;;;;;;;12.00;3.67;;;8.70;99.90;;;;;;5040894;28;20053;-65
2022/04/29 06:51:06;;;;;;;11.70;3.90;;;8.70;99.90;;;;;;5040083;28;20038;-65
2022/04/29 06:53:32;;;;;;;7.28;3.45;;;8.70;99.90;;;;;;5040267;28;20083;-65
2022/04/29 06:55:58;;;;;;;12.95;3.38;;;8.70;99.90;;;;;;5045138;28;20140;-66
2022/04/29 06:58:23;;;;;;;9.43;3.28;;;8.80;99.90;;;;;;5039241;28;20041;-65
2022/04/29 07:00:49;;;;;;;10.25;2.90;;;8.80;99.90;;;;;;5037393;28;20045;-65
2022/04/29 07:03:15;;;;;;;7.28;2.97;;;8.80;99.90;;;;;;5040402;28;20037;-65
2022/04/29 07:05:41;;;;;;;10.23;3.03;;;8.80;99.90;;;;;;5021518;28;20076;-65
2022/04/29 07:08:07;;;;;;;9.50;3.40;;;8.80;99.90;;;;;;5041016;28;20063;-65
2022/04/29 07:10:33;;;;;;;11.52;2.90;;;8.70;99.90;;;;;;5039162;28;20052;-65
2022/04/29 07:13:03;;;;;;;10.05;4.05;;;8.80;99.90;;;;;;5041674;28;20461;-65
2022/04/29 07:15:28;;;;;;;8.50;2.63;;;8.70;99.90;;;;;;5030051;28;20049;-65
2022/04/29 07:17:54;;;;;;;8.45;2.90;;;8.80;99.90;;;;;;5032627;28;20064;-65
2022/04/29 07:20:20;;;;;;;7.60;2.55;;;8.80;99.90;;;;;;5030561;28;20041;-66
2022/04/29 07:22:45;;;;;;;4.75;2.22;;;8.90;99.90;;;;;;5033129;28;20551;-64
2022/04/29 07:25:13;;;;;;;6.70;2.58;;;8.90;99.90;;;;;;5041597;28;20049;-64
2022/04/29 07:27:40;;;;;;;8.88;3.03;;;9.00;99.90;;;;;;5039938;28;20465;-64
2022/04/29 07:30:07;;;;;;;6.88;2.25;;;9.00;99.90;;;;;;5042148;28;20037;-64
2022/04/29 07:32:33;;;;;;;8.65;2.20;;;9.10;99.90;;;;;;5024960;28;20131;-64
2022/04/29 07:43:14;;;;;;;6.88;1.70;;;9.40;99.90;;;;;;5042548;28;20048;-64
2022/04/29 07:45:42;;;;;;;5.22;1.80;;;9.40;99.90;;;;;;5036801;28;20509;-64
2022/04/29 07:48:08;;;;;;;6.55;1.77;;;9.50;99.90;;;;;;5041916;28;20045;-65
2022/04/29 07:50:35;;;;;;;7.13;1.88;;;9.60;99.90;;;;;;5040582;28;20045;-64
2022/04/29 07:53:02;;;;;;;9.50;2.00;;;9.80;99.90;;;;;;5038641;28;20140;-65
2022/04/29 07:55:29;;;;;;;6.20;1.75;;;9.90;99.90;;;;;;5040616;28;20098;-64
2022/04/29 07:57:56;;;;;;;10.45;1.90;;;9.90;99.90;;;;;;5041700;28;20037;-65
2022/04/29 08:00:22;;;;;;;5.95;1.60;;;10.00;99.90;;;;;;5022989;28;20126;-64
2022/04/29 08:02:48;;;;;;;6.55;1.80;;;10.10;99.90;;;;;;5033922;28;20041;-65
2022/04/29 08:05:14;;;;;;;4.80;1.63;;;10.10;99.90;;;;;;5036304;28;20071;-65
2022/04/29 08:07:40;;;;;;;10.52;2.22;;;10.00;99.90;;;;;;5038708;28;20049;-66
2022/04/29 08:10:06;;;;;;;8.02;1.58;;;10.00;99.90;;;;;;5046223;28;20054;-65
2022/04/29 08:12:33;;;;;;;7.38;1.80;;;9.90;99.90;;;;;;5041750;28;20033;-65
2022/04/29 08:14:59;;;;;;;5.18;1.67;;;9.80;99.90;;;;;;5042737;28;20053;-64
2022/04/29 08:17:27;;;;;;;10.30;2.20;;;9.70;99.90;;;;;;5041676;28;20529;-65
2022/04/29 08:19:53;;;;;;;8.88;2.15;;;9.60;99.90;;;;;;5036487;28;20053;-65
2022/04/29 08:22:20;;;;;;;6.75;2.40;;;9.60;99.90;;;;;;5043147;28;20106;-65
2022/04/29 08:24:46;;;;;;;7.63;1.90;;;9.70;99.90;;;;;;5044846;28;20430;-64
2022/04/29 08:27:13;;;;;;;7.25;2.30;;;9.60;99.90;;;;;;5041718;28;20068;-65
2022/04/29 08:29:39;;;;;;;5.82;2.60;;;9.60;99.90;;;;;;5040139;28;20122;-65
2022/04/29 08:32:05;;;;;;;9.60;2.40;;;9.60;99.90;;;;;;5041993;28;20040;-65
2022/04/29 08:34:33;;;;;;;6.65;2.50;;;9.70;99.90;;;;;;5042444;28;20049;-64
2022/04/29 08:37:02;;;;;;;6.25;2.22;;;9.80;99.90;;;;;;5038993;28;20107;-65
2022/04/29 08:39:27;;;;;;;6.03;2.42;;;10.00;99.90;;;;;;5038345;28;20128;-65
2022/04/29 08:41:54;;;;;;;8.25;2.38;;;10.00;99.90;;;;;;5042865;28;20466;-66
2022/04/29 08:44:20;;;;;;;7.80;2.78;;;10.10;99.90;;;;;;5056556;28;20037;-65
2022/04/29 08:46:46;;;;;;;7.15;2.20;;;10.10;99.90;;;;;;5040068;28;20464;-66
2022/04/29 08:49:12;;;;;;;7.30;2.75;;;10.20;99.90;;;;;;5027485;28;20045;-65
2022/04/29 08:51:38;;;;;;;6.50;2.28;;;10.30;99.90;;;;;;5029982;28;20397;-65
2022/04/29 08:54:04;;;;;;;9.23;2.63;;;10.30;99.90;;;;;;5025571;28;20049;-65
2022/04/29 08:59:19;;;;;;;7.18;2.20;;;10.40;99.90;;;;;;5029216;28;20512;-65
2022/04/29 09:01:44;;;;;;;9.30;2.17;;;10.50;99.90;;;;;;5025438;28;20052;-65
2022/04/29 09:04:10;;;;;;;5.88;2.03;;;10.50;99.90;;;;;;5031327;28;20115;-65
2022/04/29 09:06:49;;;;;;;6.43;2.15;;;10.40;99.90;;;;;;5030964;28;20495;-65
2022/04/29 09:09:21;;;;;;;9.38;2.42;;;10.40;99.90;;;;;;5008221;28;20472;-65
2022/04/29 09:11:47;;;;;;;8.35;2.70;;;10.20;99.90;;;;;;5009763;28;20052;-65
2022/04/29 09:14:24;;;;;;;9.23;2.22;;;10.20;99.90;;;;;;5023784;28;20052;-65
2022/04/29 09:16:50;;;;;;;10.30;2.38;;;10.10;99.90;;;;;;5026133;28;20049;-66
2022/04/29 09:19:34;;;;;;;7.40;2.35;;;10.40;99.90;;;;;;5030011;28;20099;-65
2022/04/29 09:22:09;;;;;;;7.07;1.90;;;10.00;99.90;;;;;;5028001;28;20604;-65
2022/04/29 09:24:35;;;;;;;12.05;2.20;;;9.90;99.90;;;;;;5028488;28;20059;-66
2022/04/29 09:27:03;;;;;;;5.63;2.20;;;10.00;99.90;;;;;;5026417;28;20041;-65
2022/04/29 09:29:29;;;;;;;5.05;1.60;;;10.00;99.90;;;;;;5026120;28;20057;-66
2022/04/29 09:31:58;;;;;;;7.63;2.05;;;10.00;99.90;;;;;;5031005;28;20044;-64
2022/04/29 09:34:42;;;;;;;7.10;2.20;;;10.00;99.90;;;;;;5031796;28;20045;-65
2022/04/29 09:37:25;;;;;;;15.82;2.30;;;10.00;99.90;;;;;;5026974;28;20045;-65
2022/04/29 09:39:52;;;;;;;6.25;2.60;;;10.00;99.90;;;;;;5030502;28;20049;-65
2022/04/29 09:42:17;;;;;;;7.53;2.60;;;10.00;99.90;;;;;;5029780;28;21385;-65
2022/04/29 09:44:43;;;;;;;9.10;2.40;;;10.00;99.90;;;;;;5029109;28;20707;-65
2022/04/29 09:47:17;;;;;;;6.85;2.70;;;10.10;99.90;;;;;;5030483;28;20049;-65
2022/04/29 09:50:08;;;;;;;13.73;2.67;;;10.10;99.90;;;;;;5016056;28;20053;-65
2022/04/29 09:52:38;;;;;;;;;;;10.10;99.90;;;;;;5020238;28;20057;-65
2022/04/29 09:55:15;;;;;;;7.03;2.50;;;10.10;99.90;;;;;;5029323;28;20027;-65
2022/04/29 09:57:52;;;;;;;10.40;3.10;;;10.10;99.90;;;;;;5028389;28;20134;-65
2022/04/29 10:00:19;;;;;;;10.30;3.30;;;10.00;99.90;;;;;;5031030;28;20053;-65
2022/04/29 10:02:48;;;;;;;9.00;2.85;;;10.10;99.90;;;;;;5031507;28;20049;-66
2022/04/29 10:05:14;;;;;;;7.70;2.75;;;10.00;99.90;;;;;;5028155;28;20574;-65
2022/04/29 10:07:41;;;;;;;9.15;3.15;;;10.00;99.90;;;;;;5033828;28;20573;-65
2022/04/29 10:10:10;;;;;;;8.63;2.42;;;10.00;99.90;;;;;;5032485;28;21644;-66
2022/04/29 10:12:37;;;;;;;7.25;2.83;;;10.10;99.90;;;;;;5033067;28;20111;-66
2022/04/29 10:15:06;;;;;;;7.93;3.10;;;10.10;99.90;;;;;;5030358;28;20055;-65
2022/04/29 10:23:17;;;;;;;10.70;2.78;;;10.00;99.90;;;;;;4988271;28;20099;-65
2022/04/29 10:25:45;;;;;;;7.13;2.80;;;9.90;99.90;;;;;;5040832;28;20508;-66
2022/04/29 10:28:16;;;;;;;10.63;2.90;;;9.90;99.90;;;;;;5032742;28;20032;-66
2022/04/29 10:30:42;;;;;;;;;;;9.90;99.90;;;;;;5022166;28;20042;-66
2022/04/29 10:33:12;;;;;;;10.75;2.72;;;10.00;99.90;;;;;;5031776;28;20407;-66
2022/04/29 10:35:42;;;;;;;11.80;4.10;;;10.00;99.90;;;;;;5044927;28;20092;-65
2022/04/29 10:38:32;;;;;;;7.68;3.30;;;10.00;99.90;;;;;;5041913;28;20049;-66
2022/04/29 10:41:08;;;;;;;9.07;2.88;;;9.80;99.90;;;;;;5026434;28;20077;-66
2022/04/29 10:43:38;;;;;;;9.73;3.20;;;9.70;99.90;;;;;;5032093;28;20536;-65
2022/04/29 10:46:04;;;;;;;10.57;2.85;;;9.70;99.90;;;;;;5040316;28;20053;-66
2022/04/29 10:48:34;;;;;;;10.35;3.05;;;9.80;99.90;;;;;;5034635;28;20567;-65
2022/04/29 10:51:20;;;;;;;7.87;2.87;;;9.90;99.90;;;;;;5037775;28;20041;-65
2022/04/29 10:53:49;;;;;;;8.65;2.72;;;9.90;99.90;;;;;;5036820;28;20410;-66
2022/04/29 10:56:30;;;;;;;20.13;4.10;;;9.90;99.90;;;;;;5041355;28;20124;-66
2022/04/29 10:59:13;;;;;;;9.45;3.10;;;10.20;99.90;;;;;;5042324;28;20501;-66
2022/04/29 11:01:40;;;;;;;5.20;2.88;;;10.20;99.90;;;;;;5043262;28;20565;-65
2022/04/29 11:04:27;;;;;;;7.07;2.60;;;10.60;99.90;;;;;;5024801;28;20390;-66
2022/04/29 11:06:53;;;;;;;14.23;3.35;;;10.40;99.90;;;;;;5025917;28;20476;-67
2022/04/29 11:09:29;;;;;;;8.13;2.60;;;10.40;99.90;;;;;;5038428;28;20388;-65
2022/04/29 11:11:58;;;;;;;11.15;3.10;;;10.50;99.90;;;;;;5045287;28;20133;-66
2022/04/29 11:14:24;;;;;;;7.28;2.97;;;10.50;99.90;;;;;;5039770;28;20049;-65
2022/04/29 11:17:11;;;;;;;11.35;3.22;;;10.50;99.90;;;;;;5044601;28;20094;-65
2022/04/29 11:19:46;;;;;;;7.95;3.10;;;10.50;99.90;;;;;;5031345;28;20462;-65
2022/04/29 11:25:03;;;;;;;6.15;2.80;;;10.50;99.90;;;;;;5040962;28;20497;-65
2022/04/29 11:27:37;;;;;;;10.95;3.30;;;10.50;99.90;;;;;;5052835;28;20049;-65
2022/04/29 11:30:04;;;;;;;9.55;2.80;;;10.60;99.90;;;;;;5052979;28;20049;-65
2022/04/29 11:32:31;;;;;;;7.85;3.05;;;10.70;99.90;;;;;;5052302;28;20036;-66
2022/04/29 11:35:00;;;;;;;10.68;2.88;;;10.70;99.90;;;;;;5052943;28;20074;-65
2022/04/29 11:37:28;;;;;;;5.00;2.42;;;10.70;99.90;;;;;;5048693;28;20070;-66
2022/04/29 11:40:02;;;;;;;9.55;2.90;;;10.70;99.90;;;;;;5053172;28;20049;-66
2022/04/29 11:42:28;;;;;;;7.95;3.10;;;10.70;99.90;;;;;;5053827;28;20344;-66
2022/04/29 11:44:54;;;;;;;9.48;2.50;;;10.80;99.90;;;;;;5049508;28;20041;-65
2022/04/29 11:47:23;;;;;;;7.40;2.40;;;10.80;99.90;;;;;;5051621;28;20044;-65
2022/04/29 11:49:49;;;;;;;8.05;2.70;;;10.80;99.90;;;;;;5018064;28;20071;-65
2022/04/29 11:52:26;;;;;;;7.28;2.80;;;10.70;99.90;;;;;;5024694;28;20132;-66
2022/04/29 11:54:52;;;;;;;9.02;3.15;;;10.80;99.90;;;;;;5054206;28;20041;-66
2022/04/29 11:57:18;;;;;;;9.40;2.38;;;10.60;99.90;;;;;;5054786;28;20040;-65
2022/04/29 11:59:45;;;;;;;8.85;2.42;;;10.60;99.90;;;;;;5047880;28;20414;-65
2022/04/29 12:02:11;;;;;;;8.73;2.60;;;10.50;99.90;;;;;;5052380;28;20132;-66
2022/04/29 12:04:50;;;;;;;6.65;2.72;;;10.50;99.90;;;;;;5052032;28;20090;-65
2022/04/29 12:07:16;;;;;;;7.15;3.15;;;10.20;99.90;;;;;;5054278;28;20071;-65
2022/04/29 12:09:42;;;;;;;9.80;2.75;;;10.70;99.90;;;;;;5049859;28;20048;-66
2022/04/29 12:12:26;;;;;;;7.30;2.40;;;10.80;99.90;;;;;;5051501;28;20122;-65
2022/04/29 12:14:52;;;;;;;9.88;2.58;;;10.70;99.90;;;;;;5053927;28;20435;-66
2022/04/29 12:17:18;;;;;;;7.18;2.65;;;10.60;99.90;;;;;;5052584;28;20415;-65
2022/04/29 12:19:44;;;;;;;6.90;2.58;;;10.50;99.90;;;;;;5048378;28;20127;-66
2022/04/29 12:22:10;;;;;;;9.35;2.90;;;10.40;99.90;;;;;;5053323;28;20135;-66
2022/04/29 12:24:43;;;;;;;9.15;2.88;;;10.40;99.90;;;;;;5052972;28;20056;-66
2022/04/29 12:27:09;;;;;;;7.68;2.80;;;10.50;99.90;;;;;;5051405;28;20099;-66
2022/04/29 12:29:39;;;;;;;5.72;2.50;;;10.50;99.90;;;;;;5048282;28;20394;-65
2022/04/29 12:35:10;;;;;;;6.68;2.30;;;10.70;99.90;;;;;;5040208;28;20061;-65
2022/04/29 12:37:37;;;;;;;5.80;2.05;;;10.80;99.90;;;;;;5039126;28;20518;-67
2022/04/29 12:40:05;;;;;;;8.95;2.30;;;10.80;99.90;;;;;;5037622;28;20090;-66
2022/04/29 12:42:30;;;;;;;7.90;2.50;;;10.90;99.90;;;;;;5032848;28;20634;-68
2022/04/29 12:45:07;;;;;;;6.70;2.28;;;10.90;99.90;;;;;;5039367;28;20443;-66
2022/04/29 12:47:44;;;;;;;7.13;2.65;;;11.00;99.90;;;;;;5041104;28;20049;-66
2022/04/29 12:50:24;;;;;;;8.15;2.50;;;11.80;99.90;;;;;;5037038;28;20562;-66
2022/04/29 12:52:54;;;;;;;8.38;3.00;;;11.10;99.90;;;;;;5043158;28;20053;-65
2022/04/29 12:55:21;;;;;;;8.15;2.63;;;11.10;99.90;;;;;;5039399;28;20120;-66
2022/04/29 12:57:47;;;;;;;4.78;2.00;;;11.10;99.90;;;;;;5035753;28;20434;-67
2022/04/29 13:00:23;;;;;;;7.15;2.85;;;11.10;99.90;;;;;;5037725;28;20049;-66
2022/04/29 13:03:15;;;;;;;8.30;2.30;;;11.00;99.90;;;;;;5041799;28;20044;-66
2022/04/29 13:05:40;;;;;;;;;;;11.00;99.90;;;;;;5031653;28;20045;-67
2022/04/29 13:08:09;;;;;;;8.90;2.17;;;10.90;99.90;;;;;;5043105;28;19925;-67
2022/04/29 13:10:58;;;;;;;6.43;2.30;;;10.90;99.90;;;;;;5043461;28;20045;-66
2022/04/29 13:13:26;;;;;;;11.38;2.28;;;11.00;99.90;;;;;;5036917;28;20053;-67
2022/04/29 13:15:52;;;;;;;5.53;2.60;;;10.90;99.90;;;;;;5011917;28;21490;-67
2022/04/29 13:18:19;;;;;;;9.40;2.42;;;11.00;99.90;;;;;;5027751;28;20640;-67
2022/04/29 13:20:46;;;;;;;7.63;2.20;;;11.10;99.90;;;;;;5033879;28;20402;-65
2022/04/29 13:23:12;;;;;;;8.93;2.50;;;11.20;99.90;;;;;;5035003;28;20045;-67